sensor_id;sensor_type;location;lat;lon;timestamp;temperature;humidity
2106;DHT22;1059;52.548;13.408;2023-02-18T00:00:02;7.50;99.90
2106;DHT22;1059;52.548;13.408;2023-02-18T00:02:31;7.50;99.90
2106;DHT22;1059;52.548;13.408;2023-02-18T00:04:58;7.50;99.90
2106;DHT22;1059;52.548;13.408;2023-02-18T00:07:25;7.50;99.90
2106;DHT22;1059;52.548;13.408;2023-02-18T00:09:52;7.50;99.90
2106;DHT22;1059;52.548;13.408;2023-02-18T00:12:22;7.40;99.90
2106;DHT22;1059;52.548;13.408;2023-02-18T00:14:49;7.40;99.90
2106;DHT22;1059;52.548;13.408;2023-02-18T00:17:17;7.40;99.90
2106;DHT22;1059;52.548;13.408;2023-02-18T00:19:44;7.40;99.90
2106;DHT22;1059;52.548;13.408;2023-02-18T00:22:11;7.40;99.90
2106;DHT22;1059;52.548;13.408;2023-02-18T00:24:38;7.30;99.90
2106;DHT22;1059;52.548;13.408;2023-02-18T00:27:05;7.30;99.90
2106;DHT22;1059;52.548;13.408;2023-02-18T00:29:33;7.30;99.90
2106;DHT22;1059;52.548;13.408;2023-02-18T00:32:00;7.30;99.90
2106;DHT22;1059;52.548;13.408;2023-02-18T00:34:28;7.30;99.90
2106;DHT22;1059;52.548;13.408;2023-02-18T00:36:55;7.30;99.90
2106;DHT22;1059;52.548;13.408;2023-02-18T00:39:22;7.30;99.90
2106;DHT22;1059;52.548;13.408;2023-02-18T00:41:49;7.20;99.90
2106;DHT22;1059;52.548;13.408;2023-02-18T00:44:16;7.20;99.90
2106;DHT22;1059;52.548;13.408;2023-02-18T00:46:42;7.20;99.90
2106;DHT22;1059;52.548;13.408;2023-02-18T00:49:12;7.10;99.90
2106;DHT22;1059;52.548;13.408;2023-02-18T00:51:40;7.10;99.90
2106;DHT22;1059;52.548;13.408;2023-02-18T00:54:08;7.10;99.90
2106;DHT22;1059;52.548;13.408;2023-02-18T00:56:35;7.00;99.90
2106;DHT22;1059;52.548;13.408;2023-02-18T00:59:02;7.00;99.90
2106;DHT22;1059;52.548;13.408;2023-02-18T01:01:29;7.00;99.90
2106;DHT22;1059;52.548;13.408;2023-02-18T01:03:56;7.00;99.90
2106;DHT22;1059;52.548;13.408;2023-02-18T01:06:23;7.00;99.90
2106;DHT22;1059;52.548;13.408;2023-02-18T01:08:51;6.90;99.90
2106;DHT22;1059;52.548;13.408;2023-02-18T01:11:18;6.90;99.90
2106;DHT22;1059;52.548;13.408;2023-02-18T01:13:45;6.90;99.90
2106;DHT22;1059;52.548;13.408;2023-02-18T01:16:12;6.80;99.90
2106;DHT22;1059;52.548;13.408;2023-02-18T01:18:39;6.80;99.90
2106;DHT22;1059;52.548;13.408;2023-02-18T01:21:07;6.80;99.90
2106;DHT22;1059;52.548;13.408;2023-02-18T01:23:34;6.80;99.90
2106;DHT22;1059;52.548;13.408;2023-02-18T01:26:03;6.80;99.90
2106;DHT22;1059;52.548;13.408;2023-02-18T01:28:30;6.80;99.90
2106;DHT22;1059;52.548;13.408;2023-02-18T01:30:57;6.70;99.90
2106;DHT22;1059;52.548;13.408;2023-02-18T01:33:24;6.70;99.90
2106;DHT22;1059;52.548;13.408;2023-02-18T01:35:51;6.70;99.90
2106;DHT22;1059;52.548;13.408;2023-02-18T01:38:18;6.70;99.90
2106;DHT22;1059;52.548;13.408;2023-02-18T01:40:50;6.70;99.90
2106;DHT22;1059;52.548;13.408;2023-02-18T01:43:20;6.70;99.90
2106;DHT22;1059;52.548;13.408;2023-02-18T01:45:51;6.70;99.90
2106;DHT22;1059;52.548;13.408;2023-02-18T01:48:25;6.70;99.90
2106;DHT22;1059;52.548;13.408;2023-02-18T01:50:57;6.70;99.90
2106;DHT22;1059;52.548;13.408;2023-02-18T01:53:27;6.70;99.90
2106;DHT22;1059;52.548;13.408;2023-02-18T01:55:56;6.70;99.90
2106;DHT22;1059;52.548;13.408;2023-02-18T01:58:25;6.70;99.90
2106;DHT22;1059;52.548;13.408;2023-02-18T02:00:52;6.70;99.90
2106;DHT22;1059;52.548;13.408;2023-02-18T02:03:19;6.70;99.90
2106;DHT22;1059;52.548;13.408;2023-02-18T02:05:46;6.70;99.90
2106;DHT22;1059;52.548;13.408;2023-02-18T02:08:13;6.70;99.90
2106;DHT22;1059;52.548;13.408;2023-02-18T02:10:57;6.70;99.90
2106;DHT22;1059;52.548;13.408;2023-02-18T02:13:31;6.70;99.90
2106;DHT22;1059;52.548;13.408;2023-02-18T02:16:05;6.60;99.90
2106;DHT22;1059;52.548;13.408;2023-02-18T02:18:42;6.60;99.90
2106;DHT22;1059;52.548;13.408;2023-02-18T02:21:44;6.60;99.90
2106;DHT22;1059;52.548;13.408;2023-02-18T02:24:45;6.60;99.90
2106;DHT22;1059;52.548;13.408;2023-02-18T02:27:21;6.60;99.90
2106;DHT22;1059;52.548;13.408;2023-02-18T02:36:22;6.60;99.90
2106;DHT22;1059;52.548;13.408;2023-02-18T02:38:59;6.60;99.90
2106;DHT22;1059;52.548;13.408;2023-02-18T02:41:42;6.60;99.90
2106;DHT22;1059;52.548;13.408;2023-02-18T02:44:19;6.60;99.90
2106;DHT22;1059;52.548;13.408;2023-02-18T02:46:48;6.60;99.90
2106;DHT22;1059;52.548;13.408;2023-02-18T02:49:25;6.60;99.90
2106;DHT22;1059;52.548;13.408;2023-02-18T02:52:00;6.60;99.90
2106;DHT22;1059;52.548;13.408;2023-02-18T02:54:29;6.60;99.90
2106;DHT22;1059;52.548;13.408;2023-02-18T02:57:09;6.60;99.90
2106;DHT22;1059;52.548;13.408;2023-02-18T02:59:59;6.60;99.90
2106;DHT22;1059;52.548;13.408;2023-02-18T03:02:36;6.60;99.90
2106;DHT22;1059;52.548;13.408;2023-02-18T03:05:23;6.60;99.90
2106;DHT22;1059;52.548;13.408;2023-02-18T03:08:07;6.60;99.90
2106;DHT22;1059;52.548;13.408;2023-02-18T03:10:45;6.50;99.90
2106;DHT22;1059;52.548;13.408;2023-02-18T03:13:17;6.60;99.90
2106;DHT22;1059;52.548;13.408;2023-02-18T03:15:54;6.50;99.90
2106;DHT22;1059;52.548;13.408;2023-02-18T03:18:28;6.50;99.90
2106;DHT22;1059;52.548;13.408;2023-02-18T03:21:03;6.50;99.90
2106;DHT22;1059;52.548;13.408;2023-02-18T03:23:36;6.50;99.90
2106;DHT22;1059;52.548;13.408;2023-02-18T03:26:07;6.50;99.90
2106;DHT22;1059;52.548;13.408;2023-02-18T03:28:35;6.50;99.90
2106;DHT22;1059;52.548;13.408;2023-02-18T03:31:07;6.50;99.90
2106;DHT22;1059;52.548;13.408;2023-02-18T03:33:43;6.50;99.90
2106;DHT22;1059;52.548;13.408;2023-02-18T03:36:11;6.50;99.90
2106;DHT22;1059;52.548;13.408;2023-02-18T03:38:43;6.50;99.90
2106;DHT22;1059;52.548;13.408;2023-02-18T03:41:11;6.50;99.90
2106;DHT22;1059;52.548;13.408;2023-02-18T03:43:39;6.50;99.90
2106;DHT22;1059;52.548;13.408;2023-02-18T03:46:07;6.60;99.90
2106;DHT22;1059;52.548;13.408;2023-02-18T03:48:34;6.60;99.90
2106;DHT22;1059;52.548;13.408;2023-02-18T03:51:01;6.60;99.90
2106;DHT22;1059;52.548;13.408;2023-02-18T03:53:28;6.60;99.90
2106;DHT22;1059;52.548;13.408;2023-02-18T03:55:55;6.60;99.90
2106;DHT22;1059;52.548;13.408;2023-02-18T03:58:22;6.60;99.90
2106;DHT22;1059;52.548;13.408;2023-02-18T04:00:49;6.60;99.90
2106;DHT22;1059;52.548;13.408;2023-02-18T04:03:17;6.60;99.90
2106;DHT22;1059;52.548;13.408;2023-02-18T04:05:44;6.60;99.90
2106;DHT22;1059;52.548;13.408;2023-02-18T04:08:10;6.60;99.90
2106;DHT22;1059;52.548;13.408;2023-02-18T04:10:37;6.60;99.90
2106;DHT22;1059;52.548;13.408;2023-02-18T04:13:04;6.60;99.90
2106;DHT22;1059;52.548;13.408;2023-02-18T04:15:31;6.60;99.90
2106;DHT22;1059;52.548;13.408;2023-02-18T04:17:59;6.60;99.90
2106;DHT22;1059;52.548;13.408;2023-02-18T04:20:27;6.50;99.90
2106;DHT22;1059;52.548;13.408;2023-02-18T04:22:54;6.60;99.90
2106;DHT22;1059;52.548;13.408;2023-02-18T04:25:21;6.50;99.90
2106;DHT22;1059;52.548;13.408;2023-02-18T04:27:48;6.50;99.90
2106;DHT22;1059;52.548;13.408;2023-02-18T04:30:15;6.50;99.90
2106;DHT22;1059;52.548;13.408;2023-02-18T04:32:41;6.50;99.90
2106;DHT22;1059;52.548;13.408;2023-02-18T04:35:08;6.50;99.90
2106;DHT22;1059;52.548;13.408;2023-02-18T04:37:36;6.50;99.90
2106;DHT22;1059;52.548;13.408;2023-02-18T04:40:04;6.50;99.90
2106;DHT22;1059;52.548;13.408;2023-02-18T04:42:31;6.50;99.90
2106;DHT22;1059;52.548;13.408;2023-02-18T04:44:58;6.50;99.90
2106;DHT22;1059;52.548;13.408;2023-02-18T04:47:25;6.50;99.90
2106;DHT22;1059;52.548;13.408;2023-02-18T04:49:52;6.40;99.90
2106;DHT22;1059;52.548;13.408;2023-02-18T04:52:19;6.40;99.90
2106;DHT22;1059;52.548;13.408;2023-02-18T04:54:48;6.40;99.90
2106;DHT22;1059;52.548;13.408;2023-02-18T04:57:15;6.40;99.90
2106;DHT22;1059;52.548;13.408;2023-02-18T04:59:42;6.40;99.90
2106;DHT22;1059;52.548;13.408;2023-02-18T05:02:08;6.40;99.90
2106;DHT22;1059;52.548;13.408;2023-02-18T05:04:35;6.40;99.90
2106;DHT22;1059;52.548;13.408;2023-02-18T05:07:02;6.40;99.90
2106;DHT22;1059;52.548;13.408;2023-02-18T05:09:29;6.40;99.90
2106;DHT22;1059;52.548;13.408;2023-02-18T05:11:57;6.40;99.90
2106;DHT22;1059;52.548;13.408;2023-02-18T05:14:24;6.40;99.90
2106;DHT22;1059;52.548;13.408;2023-02-18T05:16:51;6.40;99.90
2106;DHT22;1059;52.548;13.408;2023-02-18T05:19:18;6.40;99.90
2106;DHT22;1059;52.548;13.408;2023-02-18T05:21:45;6.40;99.90
2106;DHT22;1059;52.548;13.408;2023-02-18T05:24:11;6.40;99.90
2106;DHT22;1059;52.548;13.408;2023-02-18T05:26:38;6.40;99.90
2106;DHT22;1059;52.548;13.408;2023-02-18T05:29:07;6.50;99.90
2106;DHT22;1059;52.548;13.408;2023-02-18T05:31:33;6.50;99.90
2106;DHT22;1059;52.548;13.408;2023-02-18T05:34:02;6.60;99.90
2106;DHT22;1059;52.548;13.408;2023-02-18T05:36:29;6.60;99.90
2106;DHT22;1059;52.548;13.408;2023-02-18T05:38:56;6.60;99.90
2106;DHT22;1059;52.548;13.408;2023-02-18T05:41:23;6.60;99.90
2106;DHT22;1059;52.548;13.408;2023-02-18T05:43:50;6.70;99.90
2106;DHT22;1059;52.548;13.408;2023-02-18T05:46:50;6.70;99.90
2106;DHT22;1059;52.548;13.408;2023-02-18T05:49:17;6.70;99.90
2106;DHT22;1059;52.548;13.408;2023-02-18T05:51:44;6.70;99.90
2106;DHT22;1059;52.548;13.408;2023-02-18T05:54:10;6.70;99.90
2106;DHT22;1059;52.548;13.408;2023-02-18T05:56:37;6.70;99.90
2106;DHT22;1059;52.548;13.408;2023-02-18T05:59:04;6.80;99.90
2106;DHT22;1059;52.548;13.408;2023-02-18T06:01:31;6.80;99.90
2106;DHT22;1059;52.548;13.408;2023-02-18T06:03:59;6.80;99.90
2106;DHT22;1059;52.548;13.408;2023-02-18T06:06:29;6.90;99.90
2106;DHT22;1059;52.548;13.408;2023-02-18T06:08:55;6.90;99.90
2106;DHT22;1059;52.548;13.408;2023-02-18T06:11:22;6.90;99.90
2106;DHT22;1059;52.548;13.408;2023-02-18T06:13:49;6.90;99.90
2106;DHT22;1059;52.548;13.408;2023-02-18T06:16:16;7.00;99.90
2106;DHT22;1059;52.548;13.408;2023-02-18T06:18:43;7.00;99.90
2106;DHT22;1059;52.548;13.408;2023-02-18T06:21:11;7.00;99.90
2106;DHT22;1059;52.548;13.408;2023-02-18T06:23:38;7.00;99.90
2106;DHT22;1059;52.548;13.408;2023-02-18T06:26:05;7.10;99.90
2106;DHT22;1059;52.548;13.408;2023-02-18T06:28:32;7.10;99.90
2106;DHT22;1059;52.548;13.408;2023-02-18T06:30:59;7.10;99.90
2106;DHT22;1059;52.548;13.408;2023-02-18T06:33:26;7.10;99.90
2106;DHT22;1059;52.548;13.408;2023-02-18T06:35:54;7.10;99.90
2106;DHT22;1059;52.548;13.408;2023-02-18T06:38:23;7.10;99.90
2106;DHT22;1059;52.548;13.408;2023-02-18T06:40:50;7.10;99.90
2106;DHT22;1059;52.548;13.408;2023-02-18T06:43:17;7.20;99.90
2106;DHT22;1059;52.548;13.408;2023-02-18T06:45:45;7.20;99.90
2106;DHT22;1059;52.548;13.408;2023-02-18T06:48:12;7.20;99.90
2106;DHT22;1059;52.548;13.408;2023-02-18T06:50:40;7.20;99.90
2106;DHT22;1059;52.548;13.408;2023-02-18T06:53:07;7.20;99.90
2106;DHT22;1059;52.548;13.408;2023-02-18T06:55:35;7.20;99.90
2106;DHT22;1059;52.548;13.408;2023-02-18T06:58:02;7.20;99.90
2106;DHT22;1059;52.548;13.408;2023-02-18T07:00:29;7.30;99.90
2106;DHT22;1059;52.548;13.408;2023-02-18T07:02:56;7.30;99.90
2106;DHT22;1059;52.548;13.408;2023-02-18T07:05:23;7.30;99.90
2106;DHT22;1059;52.548;13.408;2023-02-18T07:07:50;7.30;99.90
2106;DHT22;1059;52.548;13.408;2023-02-18T07:10:17;7.30;99.90
2106;DHT22;1059;52.548;13.408;2023-02-18T07:12:45;7.30;99.90
2106;DHT22;1059;52.548;13.408;2023-02-18T07:15:12;7.40;99.90
2106;DHT22;1059;52.548;13.408;2023-02-18T07:17:39;7.40;99.90
2106;DHT22;1059;52.548;13.408;2023-02-18T07:20:07;7.40;99.90
2106;DHT22;1059;52.548;13.408;2023-02-18T07:22:34;7.40;99.90
2106;DHT22;1059;52.548;13.408;2023-02-18T07:25:01;7.40;99.90
2106;DHT22;1059;52.548;13.408;2023-02-18T07:27:29;7.50;99.90
2106;DHT22;1059;52.548;13.408;2023-02-18T07:29:57;7.50;99.90
2106;DHT22;1059;52.548;13.408;2023-02-18T07:32:24;7.50;99.90
2106;DHT22;1059;52.548;13.408;2023-02-18T07:34:51;7.50;99.90
2106;DHT22;1059;52.548;13.408;2023-02-18T07:37:18;7.50;99.90
2106;DHT22;1059;52.548;13.408;2023-02-18T07:39:44;7.50;99.90
2106;DHT22;1059;52.548;13.408;2023-02-18T07:42:11;7.50;99.90
2106;DHT22;1059;52.548;13.408;2023-02-18T07:44:39;7.50;99.90
2106;DHT22;1059;52.548;13.408;2023-02-18T07:47:13;7.50;99.90
2106;DHT22;1059;52.548;13.408;2023-02-18T07:49:40;7.50;99.90
2106;DHT22;1059;52.548;13.408;2023-02-18T07:52:07;7.50;99.90
2106;DHT22;1059;52.548;13.408;2023-02-18T07:54:34;7.50;99.90
2106;DHT22;1059;52.548;13.408;2023-02-18T07:57:01;7.60;99.90
2106;DHT22;1059;52.548;13.408;2023-02-18T07:59:28;7.60;99.90
2106;DHT22;1059;52.548;13.408;2023-02-18T08:01:55;7.60;99.90
2106;DHT22;1059;52.548;13.408;2023-02-18T08:04:23;7.60;99.90
2106;DHT22;1059;52.548;13.408;2023-02-18T08:06:50;7.50;99.90
2106;DHT22;1059;52.548;13.408;2023-02-18T08:09:17;7.40;99.90
2106;DHT22;1059;52.548;13.408;2023-02-18T08:11:44;7.40;99.90
2106;DHT22;1059;52.548;13.408;2023-02-18T08:14:11;7.30;99.90
2106;DHT22;1059;52.548;13.408;2023-02-18T08:16:38;7.20;99.90
2106;DHT22;1059;52.548;13.408;2023-02-18T08:19:05;7.10;99.90
2106;DHT22;1059;52.548;13.408;2023-02-18T08:21:34;7.10;99.90
2106;DHT22;1059;52.548;13.408;2023-02-18T08:24:01;7.10;99.90
2106;DHT22;1059;52.548;13.408;2023-02-18T08:26:28;7.20;99.90
2106;DHT22;1059;52.548;13.408;2023-02-18T08:28:55;7.20;99.90
2106;DHT22;1059;52.548;13.408;2023-02-18T08:31:23;7.20;99.90
2106;DHT22;1059;52.548;13.408;2023-02-18T08:33:50;7.20;99.90
2106;DHT22;1059;52.548;13.408;2023-02-18T08:36:18;7.10;99.90
2106;DHT22;1059;52.548;13.408;2023-02-18T08:38:46;7.00;99.90
2106;DHT22;1059;52.548;13.408;2023-02-18T08:41:13;6.90;99.90
2106;DHT22;1059;52.548;13.408;2023-02-18T08:43:40;6.90;99.90
2106;DHT22;1059;52.548;13.408;2023-02-18T08:46:07;6.90;99.90
2106;DHT22;1059;52.548;13.408;2023-02-18T08:48:34;6.90;99.90
2106;DHT22;1059;52.548;13.408;2023-02-18T08:51:11;6.80;99.90
2106;DHT22;1059;52.548;13.408;2023-02-18T08:53:38;6.80;99.90
2106;DHT22;1059;52.548;13.408;2023-02-18T08:56:08;6.70;99.90
2106;DHT22;1059;52.548;13.408;2023-02-18T08:58:36;6.70;99.90
2106;DHT22;1059;52.548;13.408;2023-02-18T09:01:04;6.60;99.90
2106;DHT22;1059;52.548;13.408;2023-02-18T09:03:31;6.60;99.90
2106;DHT22;1059;52.548;13.408;2023-02-18T09:05:58;6.60;99.90
2106;DHT22;1059;52.548;13.408;2023-02-18T09:08:26;6.50;99.90
2106;DHT22;1059;52.548;13.408;2023-02-18T09:10:54;6.50;99.90
2106;DHT22;1059;52.548;13.408;2023-02-18T09:13:23;6.50;99.90
2106;DHT22;1059;52.548;13.408;2023-02-18T09:15:58;6.60;99.90
2106;DHT22;1059;52.548;13.408;2023-02-18T09:18:25;6.60;99.90
2106;DHT22;1059;52.548;13.408;2023-02-18T09:20:55;6.60;99.90
2106;DHT22;1059;52.548;13.408;2023-02-18T09:23:23;6.70;99.90
2106;DHT22;1059;52.548;13.408;2023-02-18T09:25:50;6.70;99.90
2106;DHT22;1059;52.548;13.408;2023-02-18T09:28:16;6.80;99.90
2106;DHT22;1059;52.548;13.408;2023-02-18T09:30:45;6.80;99.90
2106;DHT22;1059;52.548;13.408;2023-02-18T09:33:12;6.80;99.90
2106;DHT22;1059;52.548;13.408;2023-02-18T09:35:42;6.80;99.90
2106;DHT22;1059;52.548;13.408;2023-02-18T09:38:11;6.80;99.90
2106;DHT22;1059;52.548;13.408;2023-02-18T09:40:41;6.80;99.90
2106;DHT22;1059;52.548;13.408;2023-02-18T09:43:17;6.80;99.90
2106;DHT22;1059;52.548;13.408;2023-02-18T09:45:48;6.80;99.90
2106;DHT22;1059;52.548;13.408;2023-02-18T09:48:15;6.80;99.90
2106;DHT22;1059;52.548;13.408;2023-02-18T09:50:47;6.80;99.90
2106;DHT22;1059;52.548;13.408;2023-02-18T09:53:16;6.90;99.90
2106;DHT22;1059;52.548;13.408;2023-02-18T09:55:44;6.80;99.90
2106;DHT22;1059;52.548;13.408;2023-02-18T09:58:13;6.80;99.90
2106;DHT22;1059;52.548;13.408;2023-02-18T10:00:43;6.90;99.90
2106;DHT22;1059;52.548;13.408;2023-02-18T10:03:17;6.90;99.90
2106;DHT22;1059;52.548;13.408;2023-02-18T10:05:52;6.80;99.90
2106;DHT22;1059;52.548;13.408;2023-02-18T10:08:24;6.80;99.90
2106;DHT22;1059;52.548;13.408;2023-02-18T10:10:51;6.80;99.90
2106;DHT22;1059;52.548;13.408;2023-02-18T10:13:20;6.70;99.90
2106;DHT22;1059;52.548;13.408;2023-02-18T10:15:49;6.70;99.90
2106;DHT22;1059;52.548;13.408;2023-02-18T10:18:26;6.70;99.90
2106;DHT22;1059;52.548;13.408;2023-02-18T10:21:00;6.80;99.90
2106;DHT22;1059;52.548;13.408;2023-02-18T10:23:30;6.80;99.90
2106;DHT22;1059;52.548;13.408;2023-02-18T10:25:59;6.80;99.90
2106;DHT22;1059;52.548;13.408;2023-02-18T10:28:28;6.80;99.90
2106;DHT22;1059;52.548;13.408;2023-02-18T10:31:00;6.80;99.90
2106;DHT22;1059;52.548;13.408;2023-02-18T10:33:35;6.80;99.90
2106;DHT22;1059;52.548;13.408;2023-02-18T10:41:42;6.90;99.90
2106;DHT22;1059;52.548;13.408;2023-02-18T10:44:19;6.90;99.90
2106;DHT22;1059;52.548;13.408;2023-02-18T10:46:55;7.00;99.90
2106;DHT22;1059;52.548;13.408;2023-02-18T10:49:47;6.90;99.90
2106;DHT22;1059;52.548;13.408;2023-02-18T10:52:20;6.90;99.90
2106;DHT22;1059;52.548;13.408;2023-02-18T10:54:50;6.90;99.90
2106;DHT22;1059;52.548;13.408;2023-02-18T10:57:18;6.90;99.90
2106;DHT22;1059;52.548;13.408;2023-02-18T10:59:55;6.90;99.90
2106;DHT22;1059;52.548;13.408;2023-02-18T11:02:24;6.80;99.90
2106;DHT22;1059;52.548;13.408;2023-02-18T11:04:56;6.80;99.90
2106;DHT22;1059;52.548;13.408;2023-02-18T11:07:29;6.80;99.90
2106;DHT22;1059;52.548;13.408;2023-02-18T11:09:58;6.80;99.90
2106;DHT22;1059;52.548;13.408;2023-02-18T11:12:28;6.80;99.90
2106;DHT22;1059;52.548;13.408;2023-02-18T11:15:15;6.80;99.90
2106;DHT22;1059;52.548;13.408;2023-02-18T11:17:45;6.90;99.90
2106;DHT22;1059;52.548;13.408;2023-02-18T11:20:27;6.90;99.90
2106;DHT22;1059;52.548;13.408;2023-02-18T11:23:15;6.90;99.90
2106;DHT22;1059;52.548;13.408;2023-02-18T11:25:54;7.00;99.90
2106;DHT22;1059;52.548;13.408;2023-02-18T11:28:38;7.00;99.90
2106;DHT22;1059;52.548;13.408;2023-02-18T11:31:07;7.00;99.90
2106;DHT22;1059;52.548;13.408;2023-02-18T11:33:38;7.00;99.90
2106;DHT22;1059;52.548;13.408;2023-02-18T11:36:23;7.00;99.90
2106;DHT22;1059;52.548;13.408;2023-02-18T11:38:53;7.00;99.90
2106;DHT22;1059;52.548;13.408;2023-02-18T11:41:28;7.00;99.90
2106;DHT22;1059;52.548;13.408;2023-02-18T11:43:56;7.00;99.90
2106;DHT22;1059;52.548;13.408;2023-02-18T11:46:25;7.00;99.90
2106;DHT22;1059;52.548;13.408;2023-02-18T11:48:53;7.00;99.90
2106;DHT22;1059;52.548;13.408;2023-02-18T11:51:24;7.10;99.90
2106;DHT22;1059;52.548;13.408;2023-02-18T11:53:57;7.10;99.90
2106;DHT22;1059;52.548;13.408;2023-02-18T11:56:26;7.10;99.90
2106;DHT22;1059;52.548;13.408;2023-02-18T11:58:54;7.10;99.90
2106;DHT22;1059;52.548;13.408;2023-02-18T12:01:38;7.10;99.90
2106;DHT22;1059;52.548;13.408;2023-02-18T12:04:11;7.20;99.90
2106;DHT22;1059;52.548;13.408;2023-02-18T12:06:44;7.20;99.90
2106;DHT22;1059;52.548;13.408;2023-02-18T12:09:20;7.30;99.90
2106;DHT22;1059;52.548;13.408;2023-02-18T12:11:51;7.40;99.90
2106;DHT22;1059;52.548;13.408;2023-02-18T12:14:20;7.50;99.90
2106;DHT22;1059;52.548;13.408;2023-02-18T12:17:03;7.50;99.90
2106;DHT22;1059;52.548;13.408;2023-02-18T12:19:47;7.60;99.90
2106;DHT22;1059;52.548;13.408;2023-02-18T12:22:24;7.70;99.90
2106;DHT22;1059;52.548;13.408;2023-02-18T12:25:03;7.80;99.90
2106;DHT22;1059;52.548;13.408;2023-02-18T12:27:41;7.90;99.90
2106;DHT22;1059;52.548;13.408;2023-02-18T12:30:31;8.00;99.90
2106;DHT22;1059;52.548;13.408;2023-02-18T12:33:07;8.10;99.90
2106;DHT22;1059;52.548;13.408;2023-02-18T12:35:51;8.10;99.90
2106;DHT22;1059;52.548;13.408;2023-02-18T12:38:34;8.20;99.90
2106;DHT22;1059;52.548;13.408;2023-02-18T12:41:19;8.30;99.90
2106;DHT22;1059;52.548;13.408;2023-02-18T12:43:55;8.40;99.90
2106;DHT22;1059;52.548;13.408;2023-02-18T12:46:44;8.60;99.90
2106;DHT22;1059;52.548;13.408;2023-02-18T12:52:14;8.80;99.90
2106;DHT22;1059;52.548;13.408;2023-02-18T12:55:02;9.00;99.90
2106;DHT22;1059;52.548;13.408;2023-02-18T12:57:41;9.10;99.90
2106;DHT22;1059;52.548;13.408;2023-02-18T13:00:35;9.20;99.90
2106;DHT22;1059;52.548;13.408;2023-02-18T13:03:34;9.30;99.90
2106;DHT22;1059;52.548;13.408;2023-02-18T13:06:12;9.40;99.90
2106;DHT22;1059;52.548;13.408;2023-02-18T13:08:49;9.50;99.90
2106;DHT22;1059;52.548;13.408;2023-02-18T13:11:34;9.70;99.90
2106;DHT22;1059;52.548;13.408;2023-02-18T13:14:09;9.70;99.90
2106;DHT22;1059;52.548;13.408;2023-02-18T13:16:40;9.80;99.90
2106;DHT22;1059;52.548;13.408;2023-02-18T13:19:17;9.90;99.90
2106;DHT22;1059;52.548;13.408;2023-02-18T13:21:44;10.00;99.90
2106;DHT22;1059;52.548;13.408;2023-02-18T13:24:15;10.00;99.90
2106;DHT22;1059;52.548;13.408;2023-02-18T13:26:48;10.00;99.90
2106;DHT22;1059;52.548;13.408;2023-02-18T13:29:23;10.10;99.90
2106;DHT22;1059;52.548;13.408;2023-02-18T13:32:00;10.10;99.90
2106;DHT22;1059;52.548;13.408;2023-02-18T13:34:36;10.10;99.90
2106;DHT22;1059;52.548;13.408;2023-02-18T13:37:10;10.10;99.90
2106;DHT22;1059;52.548;13.408;2023-02-18T13:39:46;10.10;99.90
2106;DHT22;1059;52.548;13.408;2023-02-18T13:42:32;10.10;99.90
2106;DHT22;1059;52.548;13.408;2023-02-18T13:45:24;10.10;99.90
2106;DHT22;1059;52.548;13.408;2023-02-18T13:47:52;10.10;99.90
2106;DHT22;1059;52.548;13.408;2023-02-18T13:50:28;10.20;99.90
2106;DHT22;1059;52.548;13.408;2023-02-18T13:53:22;10.20;99.90
2106;DHT22;1059;52.548;13.408;2023-02-18T13:55:53;10.20;99.90
2106;DHT22;1059;52.548;13.408;2023-02-18T13:58:26;10.20;99.90
2106;DHT22;1059;52.548;13.408;2023-02-18T14:01:01;10.20;99.90
2106;DHT22;1059;52.548;13.408;2023-02-18T14:03:49;10.20;99.90
2106;DHT22;1059;52.548;13.408;2023-02-18T14:06:18;10.20;99.90
2106;DHT22;1059;52.548;13.408;2023-02-18T14:08:45;10.20;99.90
2106;DHT22;1059;52.548;13.408;2023-02-18T14:11:33;10.20;99.90
2106;DHT22;1059;52.548;13.408;2023-02-18T14:17:42;10.10;99.90
2106;DHT22;1059;52.548;13.408;2023-02-18T14:20:44;10.10;99.90
2106;DHT22;1059;52.548;13.408;2023-02-18T14:23:43;10.10;99.90
2106;DHT22;1059;52.548;13.408;2023-02-18T14:26:21;10.10;99.90
2106;DHT22;1059;52.548;13.408;2023-02-18T14:28:52;10.10;99.90
2106;DHT22;1059;52.548;13.408;2023-02-18T14:31:39;10.10;99.90
2106;DHT22;1059;52.548;13.408;2023-02-18T14:37:10;10.10;99.90
2106;DHT22;1059;52.548;13.408;2023-02-18T14:39:49;10.10;99.90
2106;DHT22;1059;52.548;13.408;2023-02-18T14:42:26;10.10;99.90
2106;DHT22;1059;52.548;13.408;2023-02-18T14:45:08;10.10;99.90
2106;DHT22;1059;52.548;13.408;2023-02-18T14:47:53;10.00;99.90
2106;DHT22;1059;52.548;13.408;2023-02-18T14:50:22;10.10;99.90
2106;DHT22;1059;52.548;13.408;2023-02-18T14:52:52;10.10;99.90
2106;DHT22;1059;52.548;13.408;2023-02-18T14:55:22;10.10;99.90
2106;DHT22;1059;52.548;13.408;2023-02-18T14:57:51;10.10;99.90
2106;DHT22;1059;52.548;13.408;2023-02-18T15:00:22;10.10;99.90
2106;DHT22;1059;52.548;13.408;2023-02-18T15:02:52;10.10;99.90
2106;DHT22;1059;52.548;13.408;2023-02-18T15:05:21;10.10;99.90
2106;DHT22;1059;52.548;13.408;2023-02-18T15:07:56;10.10;99.90
2106;DHT22;1059;52.548;13.408;2023-02-18T15:10:32;10.00;99.90
2106;DHT22;1059;52.548;13.408;2023-02-18T15:13:02;10.00;99.90
2106;DHT22;1059;52.548;13.408;2023-02-18T15:15:29;10.00;99.90
2106;DHT22;1059;52.548;13.408;2023-02-18T15:18:00;10.00;99.90
2106;DHT22;1059;52.548;13.408;2023-02-18T15:20:29;10.00;99.90
2106;DHT22;1059;52.548;13.408;2023-02-18T15:22:58;9.90;99.90
2106;DHT22;1059;52.548;13.408;2023-02-18T15:25:25;10.00;99.90
2106;DHT22;1059;52.548;13.408;2023-02-18T15:27:53;10.00;99.90
2106;DHT22;1059;52.548;13.408;2023-02-18T15:30:24;10.00;99.90
2106;DHT22;1059;52.548;13.408;2023-02-18T15:32:53;10.10;99.90
2106;DHT22;1059;52.548;13.408;2023-02-18T15:35:25;10.10;99.90
2106;DHT22;1059;52.548;13.408;2023-02-18T15:37:56;10.10;99.90
2106;DHT22;1059;52.548;13.408;2023-02-18T15:40:26;10.10;99.90
2106;DHT22;1059;52.548;13.408;2023-02-18T15:42:56;10.10;99.90
2106;DHT22;1059;52.548;13.408;2023-02-18T15:45:28;10.10;99.90
2106;DHT22;1059;52.548;13.408;2023-02-18T15:47:57;10.10;99.90
2106;DHT22;1059;52.548;13.408;2023-02-18T15:50:28;10.10;99.90
2106;DHT22;1059;52.548;13.408;2023-02-18T15:52:57;10.00;99.90
2106;DHT22;1059;52.548;13.408;2023-02-18T15:55:29;10.00;99.90
2106;DHT22;1059;52.548;13.408;2023-02-18T15:57:59;9.90;99.90
2106;DHT22;1059;52.548;13.408;2023-02-18T16:00:29;10.00;99.90
2106;DHT22;1059;52.548;13.408;2023-02-18T16:03:01;9.90;99.90
2106;DHT22;1059;52.548;13.408;2023-02-18T16:05:30;9.90;99.90
2106;DHT22;1059;52.548;13.408;2023-02-18T16:07:59;9.90;99.90
2106;DHT22;1059;52.548;13.408;2023-02-18T16:10:46;9.90;99.90
2106;DHT22;1059;52.548;13.408;2023-02-18T16:13:16;9.90;99.90
2106;DHT22;1059;52.548;13.408;2023-02-18T16:15:44;9.90;99.90
2106;DHT22;1059;52.548;13.408;2023-02-18T16:18:28;9.90;99.90
2106;DHT22;1059;52.548;13.408;2023-02-18T16:21:00;9.80;99.90
2106;DHT22;1059;52.548;13.408;2023-02-18T16:23:34;9.80;99.90
2106;DHT22;1059;52.548;13.408;2023-02-18T16:26:21;9.70;99.90
2106;DHT22;1059;52.548;13.408;2023-02-18T16:28:51;9.70;99.90
2106;DHT22;1059;52.548;13.408;2023-02-18T16:31:18;9.80;99.90
2106;DHT22;1059;52.548;13.408;2023-02-18T16:33:46;9.80;99.90
2106;DHT22;1059;52.548;13.408;2023-02-18T16:36:15;9.80;99.90
2106;DHT22;1059;52.548;13.408;2023-02-18T16:38:43;9.70;99.90
2106;DHT22;1059;52.548;13.408;2023-02-18T16:41:12;9.60;99.90
2106;DHT22;1059;52.548;13.408;2023-02-18T16:43:39;9.50;99.90
2106;DHT22;1059;52.548;13.408;2023-02-18T16:46:08;9.30;99.90